Time;durP1;ratioP1;P1;durP2;ratioP2;P2;SDS_P1;SDS_P2;PMS_P1;PMS_P2;Temp;Humidity;BMP_temperature;BMP_pressure;BME280_temperature;BME280_humidity;BME280_pressure;Samples;Min_cycle;Max_cycle;Signal;HPM_P1;HPM_P2
2022/10/01 00:00:59;;;;;;;22.80;3.95;;;;;;;;;;5034339;28;20539;-64
2022/10/01 00:03:26;;;;;;;28.52;3.17;;;;;;;;;;5035238;28;20045;-64
2022/10/01 00:06:12;;;;;;;20.33;3.10;;;;;;;;;;5035445;28;20029;-65
2022/10/01 00:08:39;;;;;;;21.85;4.32;;;;;;;;;;5035106;28;20515;-64
2022/10/01 00:11:08;;;;;;;28.77;3.58;;;;;;;;;;5035389;28;20034;-64
2022/10/01 00:13:35;;;;;;;25.70;4.28;;;;;;;;;;5035241;28;20021;-64
2022/10/01 00:16:03;;;;;;;22.48;4.18;;;;;;;;;;5034043;28;20033;-64
2022/10/01 00:18:29;;;;;;;28.13;3.47;;;;;;;;;;5034217;28;20036;-64
2022/10/01 00:20:56;;;;;;;32.67;4.20;;;;;;;;;;5034058;28;20044;-64
2022/10/01 00:23:22;;;;;;;24.42;3.35;;;;;;;;;;5034523;28;20462;-64
2022/10/01 00:25:49;;;;;;;28.52;4.32;;;;;;;;;;5034136;28;20076;-64
2022/10/01 00:28:15;;;;;;;24.63;3.75;;;;;;;;;;5035090;28;20132;-64
2022/10/01 00:30:47;;;;;;;23.52;4.10;;;;;;;;;;5033072;28;20051;-64
2022/10/01 00:33:14;;;;;;;23.48;4.38;;;;;;;;;;5034574;28;20112;-64
2022/10/01 00:35:40;;;;;;;24.52;3.47;;;;;;;;;;5034799;28;20037;-65
2022/10/01 00:38:06;;;;;;;26.20;3.90;;;;;;;;;;5034888;28;20022;-64
2022/10/01 00:40:32;;;;;;;27.10;3.47;;;;;;;;;;5034677;28;20523;-64
2022/10/01 00:42:58;;;;;;;29.58;4.47;;;;;;;;;;5034935;28;20045;-64
2022/10/01 00:45:24;;;;;;;31.67;4.05;;;;;;;;;;5033832;28;20033;-64
2022/10/01 00:47:52;;;;;;;25.35;4.47;;;;;;;;;;5034339;28;20036;-64
2022/10/01 00:50:33;;;;;;;29.75;4.80;;;;;;;;;;5034769;28;20067;-64
2022/10/01 00:53:05;;;;;;;25.17;3.70;;;;;;;;;;5034664;28;20037;-64
2022/10/01 00:55:39;;;;;;;27.70;5.95;;;;;;;;;;5019221;28;20029;-64
2022/10/01 00:58:07;;;;;;;22.85;3.88;;;;;;;;;;5017006;28;20164;-64
2022/10/01 01:00:34;;;;;;;28.02;5.57;;;;;;;;;;5033793;28;20393;-64
2022/10/01 01:03:00;;;;;;;33.20;5.85;;;;;;;;;;5034551;28;20029;-64
2022/10/01 01:05:26;;;;;;;23.55;4.80;;;;;;;;;;5034314;28;20120;-64
2022/10/01 01:07:52;;;;;;;25.75;4.65;;;;;;;;;;5034056;28;20084;-64
2022/10/01 01:10:24;;;;;;;35.72;4.43;;;;;;;;;;5034205;28;20025;-64
2022/10/01 01:13:02;;;;;;;25.17;4.53;;;;;;;;;;5032062;28;20489;-65
2022/10/01 01:15:36;;;;;;;25.70;3.85;;;;;;;;;;5033760;28;20124;-64
2022/10/01 01:18:08;;;;;;;33.50;4.57;;;;;;;;;;5034181;28;20424;-65
2022/10/01 01:21:01;;;;;;;27.13;4.82;;;;;;;;;;5033951;28;20072;-65
2022/10/01 01:23:27;;;;;;;;;;;;;;;;;;5034580;28;20504;-64
2022/10/01 01:26:16;;;;;;;35.78;5.18;;;;;;;;;;5034007;28;19904;-64
2022/10/01 01:28:47;;;;;;;47.83;6.03;;;;;;;;;;5032921;28;20037;-65
2022/10/01 01:31:15;;;;;;;20.70;3.97;;;;;;;;;;5033520;28;20033;-65
2022/10/01 01:33:43;;;;;;;32.67;5.65;;;;;;;;;;5033617;28;20466;-65
2022/10/01 01:36:18;;;;;;;22.88;4.82;;;;;;;;;;5033939;28;20072;-65
2022/10/01 01:38:48;;;;;;;28.90;4.57;;;;;;;;;;5033630;28;20076;-65
2022/10/01 01:41:14;;;;;;;45.95;5.90;;;;;;;;;;5033694;28;20037;-64
2022/10/01 01:43:43;;;;;;;28.45;5.43;;;;;;;;;;5031605;28;20037;-65
2022/10/01 01:46:10;;;;;;;35.33;5.60;;;;;;;;;;5032867;28;20036;-64
2022/10/01 01:48:38;;;;;;;30.23;5.15;;;;;;;;;;5033443;28;20083;-65
2022/10/01 01:51:10;;;;;;;32.58;4.18;;;;;;;;;;5033465;28;20116;-64
2022/10/01 01:53:37;;;;;;;30.95;5.00;;;;;;;;;;5033029;28;20026;-64
2022/10/01 01:56:04;;;;;;;45.00;7.85;;;;;;;;;;5013790;28;20113;-64
2022/10/01 01:58:32;;;;;;;31.08;4.80;;;;;;;;;;5013346;28;20022;-64
2022/10/01 02:00:58;;;;;;;29.67;5.90;;;;;;;;;;5027875;28;20025;-64
2022/10/01 02:03:27;;;;;;;29.58;4.90;;;;;;;;;;5032814;28;20036;-64
2022/10/01 02:05:58;;;;;;;37.28;5.40;;;;;;;;;;5031434;28;20076;-64
2022/10/01 02:08:33;;;;;;;31.52;5.15;;;;;;;;;;5033057;28;20049;-65
2022/10/01 02:11:08;;;;;;;33.47;5.18;;;;;;;;;;5033101;28;20060;-65
2022/10/01 02:13:42;;;;;;;40.88;6.53;;;;;;;;;;5032764;28;20034;-64
2022/10/01 02:16:08;;;;;;;40.67;5.22;;;;;;;;;;5031981;28;20092;-64
2022/10/01 02:18:42;;;;;;;28.02;4.05;;;;;;;;;;5033018;28;20026;-65
2022/10/01 02:21:16;;;;;;;32.15;4.43;;;;;;;;;;5033111;28;20033;-65
2022/10/01 02:24:08;;;;;;;35.28;5.75;;;;;;;;;;5032940;28;20040;-65
2022/10/01 02:26:36;;;;;;;35.80;4.90;;;;;;;;;;5030994;28;20071;-65
2022/10/01 02:29:07;;;;;;;28.45;4.80;;;;;;;;;;5032459;28;20037;-65
2022/10/01 02:31:34;;;;;;;32.22;5.13;;;;;;;;;;5031264;28;20033;-64
2022/10/01 02:34:01;;;;;;;32.55;5.70;;;;;;;;;;5031372;28;20026;-64
2022/10/01 02:36:28;;;;;;;39.58;5.65;;;;;;;;;;5032989;28;20026;-64
2022/10/01 02:38:56;;;;;;;26.33;5.50;;;;;;;;;;5031760;28;20022;-64
2022/10/01 02:41:26;;;;;;;28.33;5.47;;;;;;;;;;5032993;28;20025;-65
2022/10/01 02:43:55;;;;;;;47.13;6.35;;;;;;;;;;5032116;28;20543;-64
2022/10/01 02:46:31;;;;;;;37.75;5.95;;;;;;;;;;5032898;28;20029;-64
2022/10/01 02:49:01;;;;;;;37.65;4.88;;;;;;;;;;5031568;28;20060;-64
2022/10/01 02:52:00;;;;;;;42.58;7.53;;;;;;;;;;5032177;28;20025;-64
2022/10/01 02:54:33;;;;;;;33.85;4.60;;;;;;;;;;5020512;28;20103;-65
2022/10/01 03:00:02;;;;;;;39.25;5.68;;;;;;;;;;5049971;28;20095;-64
2022/10/01 03:02:30;;;;;;;43.10;4.85;;;;;;;;;;5047977;28;20040;-65
2022/10/01 03:04:56;;;;;;;38.38;6.53;;;;;;;;;;5049790;28;20069;-64
2022/10/01 03:07:23;;;;;;;43.90;5.97;;;;;;;;;;5050354;28;20555;-64
2022/10/01 03:09:49;;;;;;;32.50;6.38;;;;;;;;;;5049904;28;20041;-64
2022/10/01 03:12:17;;;;;;;34.38;5.88;;;;;;;;;;5050051;28;20116;-64
2022/10/01 03:14:46;;;;;;;38.45;5.63;;;;;;;;;;5050086;28;20103;-64
2022/10/01 03:17:12;;;;;;;36.42;5.75;;;;;;;;;;5049438;28;20136;-64
2022/10/01 03:19:39;;;;;;;44.90;5.47;;;;;;;;;;5050062;28;20029;-65
2022/10/01 03:22:05;;;;;;;41.05;6.70;;;;;;;;;;5050186;28;20052;-64
2022/10/01 03:24:31;;;;;;;34.78;6.90;;;;;;;;;;5050310;28;20033;-64
2022/10/01 03:26:57;;;;;;;41.70;7.68;;;;;;;;;;5049612;28;20083;-64
2022/10/01 03:29:24;;;;;;;30.88;4.88;;;;;;;;;;5050184;28;20060;-64
2022/10/01 03:31:51;;;;;;;43.53;5.75;;;;;;;;;;5049749;28;20056;-65
2022/10/01 03:34:17;;;;;;;34.30;5.50;;;;;;;;;;5044796;28;20033;-65
2022/10/01 03:36:43;;;;;;;46.35;6.38;;;;;;;;;;5029685;28;20042;-66
2022/10/01 03:39:09;;;;;;;33.28;5.53;;;;;;;;;;5035961;28;20022;-66
2022/10/01 03:41:36;;;;;;;40.22;7.43;;;;;;;;;;5035007;28;20496;-65
2022/10/01 03:44:02;;;;;;;34.38;5.05;;;;;;;;;;5035226;28;20021;-65
2022/10/01 03:46:29;;;;;;;35.78;6.18;;;;;;;;;;5036113;28;20037;-65
2022/10/01 03:48:56;;;;;;;43.85;7.45;;;;;;;;;;5033745;28;20466;-65
2022/10/01 03:51:23;;;;;;;39.78;6.88;;;;;;;;;;5035542;28;20619;-66
2022/10/01 03:53:49;;;;;;;45.13;6.57;;;;;;;;;;5035256;28;20076;-66
2022/10/01 03:56:15;;;;;;;41.00;6.90;;;;;;;;;;5035508;28;20373;-65
2022/10/01 03:58:41;;;;;;;50.83;7.13;;;;;;;;;;5032244;28;20105;-65
2022/10/01 04:01:08;;;;;;;48.20;5.95;;;;;;;;;;5031700;28;20033;-66
2022/10/01 04:03:34;;;;;;;40.80;7.20;;;;;;;;;;5035177;28;20033;-65
2022/10/01 04:06:00;;;;;;;46.63;6.93;;;;;;;;;;5034794;28;20129;-65
2022/10/01 04:08:26;;;;;;;47.90;7.07;;;;;;;;;;5033559;28;20447;-66
2022/10/01 04:10:52;;;;;;;43.72;6.82;;;;;;;;;;5034506;28;20083;-66
2022/10/01 04:13:18;;;;;;;47.47;7.30;;;;;;;;;;5035028;28;20033;-66
2022/10/01 04:15:44;;;;;;;38.47;6.50;;;;;;;;;;5033829;28;20029;-66
2022/10/01 04:18:11;;;;;;;46.22;6.13;;;;;;;;;;5035144;28;20516;-66
2022/10/01 04:20:38;;;;;;;43.67;5.97;;;;;;;;;;5033960;28;20095;-66
2022/10/01 04:23:04;;;;;;;44.25;7.47;;;;;;;;;;5034088;28;20029;-66
2022/10/01 04:25:31;;;;;;;41.90;6.35;;;;;;;;;;5034474;28;20047;-66
2022/10/01 04:28:07;;;;;;;33.47;5.45;;;;;;;;;;5034341;28;20033;-66
2022/10/01 04:30:34;;;;;;;40.78;5.70;;;;;;;;;;5033675;28;20029;-66
2022/10/01 04:33:00;;;;;;;32.83;5.57;;;;;;;;;;5034645;28;20374;-66
2022/10/01 04:35:27;;;;;;;34.47;5.50;;;;;;;;;;5034905;28;20030;-66
2022/10/01 04:37:58;;;;;;;38.50;5.50;;;;;;;;;;5032490;28;20037;-66
2022/10/01 04:40:24;;;;;;;36.80;4.78;;;;;;;;;;5034613;28;20362;-66
2022/10/01 04:42:51;;;;;;;26.83;4.25;;;;;;;;;;5034644;28;20057;-66
2022/10/01 04:45:17;;;;;;;33.03;4.68;;;;;;;;;;5034580;28;20041;-66
2022/10/01 04:47:47;;;;;;;27.92;4.85;;;;;;;;;;5034237;28;20029;-66
2022/10/01 04:50:14;;;;;;;34.28;5.38;;;;;;;;;;5033974;28;20397;-66
2022/10/01 04:52:45;;;;;;;33.92;5.47;;;;;;;;;;5034120;28;20037;-65
2022/10/01 04:55:11;;;;;;;34.60;5.80;;;;;;;;;;5033099;28;20370;-65
2022/10/01 04:57:38;;;;;;;41.67;6.15;;;;;;;;;;5033359;28;20026;-66
2022/10/01 05:00:05;;;;;;;30.83;4.55;;;;;;;;;;5034447;28;20041;-66
2022/10/01 05:02:33;;;;;;;24.98;4.20;;;;;;;;;;5034417;28;20064;-66
2022/10/01 05:05:03;;;;;;;33.70;4.90;;;;;;;;;;5033784;28;20040;-66
2022/10/01 05:07:33;;;;;;;29.63;4.93;;;;;;;;;;5033964;28;20038;-66
2022/10/01 05:09:59;;;;;;;39.28;6.25;;;;;;;;;;5034056;28;20412;-66
2022/10/01 05:12:26;;;;;;;34.88;5.00;;;;;;;;;;5034161;28;20030;-66
2022/10/01 05:14:53;;;;;;;21.48;4.95;;;;;;;;;;5034384;28;20033;-66
2022/10/01 05:17:19;;;;;;;33.22;5.22;;;;;;;;;;5033625;28;20108;-66
2022/10/01 05:19:46;;;;;;;40.42;6.30;;;;;;;;;;5031613;28;20013;-66
2022/10/01 05:22:12;;;;;;;40.97;4.90;;;;;;;;;;5032858;28;20034;-66
2022/10/01 05:24:38;;;;;;;31.52;4.93;;;;;;;;;;5033816;28;20041;-66
2022/10/01 05:27:08;;;;;;;29.85;5.68;;;;;;;;;;5033386;28;20068;-66
2022/10/01 05:29:34;;;;;;;34.05;4.90;;;;;;;;;;5033510;28;20021;-66
2022/10/01 05:32:00;;;;;;;29.92;5.18;;;;;;;;;;5033104;28;20029;-66
2022/10/01 05:34:26;;;;;;;35.22;5.00;;;;;;;;;;5033429;28;20017;-66
2022/10/01 05:36:52;;;;;;;44.30;5.72;;;;;;;;;;5033062;28;20035;-66
2022/10/01 05:39:18;;;;;;;36.40;4.80;;;;;;;;;;5032498;28;20037;-65
2022/10/01 05:41:44;;;;;;;38.25;6.53;;;;;;;;;;5034793;28;20044;-65
2022/10/01 05:44:10;;;;;;;31.67;5.18;;;;;;;;;;5022176;28;20034;-65
2022/10/01 05:46:37;;;;;;;30.17;5.07;;;;;;;;;;5017208;28;20064;-66
2022/10/01 05:49:03;;;;;;;43.08;5.65;;;;;;;;;;5023883;28;20541;-66
2022/10/01 05:51:29;;;;;;;30.33;4.70;;;;;;;;;;5020993;28;20022;-66
2022/10/01 05:53:57;;;;;;;30.83;5.20;;;;;;;;;;5019734;28;20061;-66
2022/10/01 05:56:24;;;;;;;37.92;6.03;;;;;;;;;;5023186;28;20083;-66
2022/10/01 05:58:50;;;;;;;39.00;5.40;;;;;;;;;;5027996;28;20036;-65
2022/10/01 06:01:16;;;;;;;29.98;4.70;;;;;;;;;;5026689;28;20440;-66
2022/10/01 06:03:43;;;;;;;35.25;4.82;;;;;;;;;;5022514;28;20107;-65
2022/10/01 06:06:09;;;;;;;30.08;5.18;;;;;;;;;;5030574;28;20029;-65
2022/10/01 06:08:36;;;;;;;38.58;4.90;;;;;;;;;;5018128;28;20187;-65
2022/10/01 06:11:03;;;;;;;31.23;4.85;;;;;;;;;;5030062;28;20370;-65
2022/10/01 06:13:29;;;;;;;23.17;4.22;;;;;;;;;;5027410;28;20017;-65
2022/10/01 06:15:55;;;;;;;29.58;4.57;;;;;;;;;;5027451;28;20482;-65
2022/10/01 06:18:22;;;;;;;35.97;5.32;;;;;;;;;;5019675;28;20025;-65
2022/10/01 06:20:48;;;;;;;37.08;4.47;;;;;;;;;;5023165;28;20788;-65
2022/10/01 06:23:14;;;;;;;44.72;5.70;;;;;;;;;;5029017;28;20029;-65
2022/10/01 06:25:41;;;;;;;26.98;4.65;;;;;;;;;;5022010;28;20036;-65
2022/10/01 06:28:08;;;;;;;32.38;5.22;;;;;;;;;;5030036;28;20029;-65
2022/10/01 06:30:36;;;;;;;28.70;4.95;;;;;;;;;;5027561;28;20037;-65
2022/10/01 06:33:02;;;;;;;27.08;4.18;;;;;;;;;;5025109;28;20100;-66
2022/10/01 06:35:28;;;;;;;30.55;4.97;;;;;;;;;;5030277;28;20041;-66
2022/10/01 06:37:54;;;;;;;31.60;5.18;;;;;;;;;;5029988;28;20105;-66
2022/10/01 06:40:20;;;;;;;37.85;5.28;;;;;;;;;;5032058;28;20025;-66
2022/10/01 06:42:50;;;;;;;30.05;4.32;;;;;;;;;;5038904;28;20033;-66
2022/10/01 06:45:17;;;;;;;34.22;5.00;;;;;;;;;;5031189;28;20033;-66
2022/10/01 06:47:53;;;;;;;24.75;4.38;;;;;;;;;;5033504;28;20037;-66
2022/10/01 06:50:19;;;;;;;24.98;5.38;;;;;;;;;;5032597;28;20075;-65
2022/10/01 06:52:48;;;;;;;32.22;5.18;;;;;;;;;;5037294;28;20029;-74
2022/10/01 06:55:25;;;;;;;28.95;4.75;;;;;;;;;;5040158;28;20124;-71
2022/10/01 06:57:58;;;;;;;28.13;4.68;;;;;;;;;;5031941;28;20125;-74
2022/10/01 07:00:25;;;;;;;39.08;5.10;;;;;;;;;;5026055;28;20022;-65
2022/10/01 07:02:51;;;;;;;31.25;4.70;;;;;;;;;;5036257;28;20134;-65
2022/10/01 07:05:18;;;;;;;36.70;5.93;;;;;;;;;;5030643;28;20400;-65
2022/10/01 07:07:44;;;;;;;31.17;5.07;;;;;;;;;;5028352;28;20045;-65
2022/10/01 07:10:10;;;;;;;39.88;5.57;;;;;;;;;;5031157;28;20061;-65
2022/10/01 07:12:37;;;;;;;33.08;6.63;;;;;;;;;;5033512;28;20037;-65
2022/10/01 07:15:04;;;;;;;29.25;4.60;;;;;;;;;;5036383;28;20128;-65
2022/10/01 07:17:31;;;;;;;33.85;4.38;;;;;;;;;;5030018;28;20057;-65
2022/10/01 07:19:57;;;;;;;32.50;4.57;;;;;;;;;;5032239;28;20049;-65
2022/10/01 07:22:24;;;;;;;27.30;4.88;;;;;;;;;;5033361;28;20033;-65
2022/10/01 07:24:50;;;;;;;25.55;4.88;;;;;;;;;;5032021;28;20037;-65
2022/10/01 07:27:17;;;;;;;30.63;4.80;;;;;;;;;;5035283;28;20029;-65
2022/10/01 07:29:43;;;;;;;32.08;4.75;;;;;;;;;;5034787;28;20041;-65
2022/10/01 07:32:10;;;;;;;31.42;5.53;;;;;;;;;;5031848;28;20055;-64
2022/10/01 07:34:38;;;;;;;31.05;5.13;;;;;;;;;;5036042;28;20029;-65
2022/10/01 07:37:05;;;;;;;31.13;4.65;;;;;;;;;;5035294;28;20029;-64
2022/10/01 07:39:31;;;;;;;36.30;6.13;;;;;;;;;;5039206;28;20033;-65
2022/10/01 07:41:57;;;;;;;31.15;4.85;;;;;;;;;;5034088;28;20041;-65
2022/10/01 07:44:25;;;;;;;41.08;4.85;;;;;;;;;;5024335;28;20529;-65
2022/10/01 07:46:51;;;;;;;31.10;5.45;;;;;;;;;;5022134;28;20018;-65
2022/10/01 07:49:17;;;;;;;31.70;5.25;;;;;;;;;;5026545;28;20490;-65
2022/10/01 07:51:44;;;;;;;34.90;5.35;;;;;;;;;;5031179;28;20037;-65
2022/10/01 07:54:10;;;;;;;28.85;6.57;;;;;;;;;;5039439;28;20110;-64
2022/10/01 07:56:36;;;;;;;33.58;5.53;;;;;;;;;;5035534;28;20055;-65
2022/10/01 07:59:02;;;;;;;31.42;4.57;;;;;;;;;;5043292;28;20038;-65
2022/10/01 08:01:30;;;;;;;41.03;7.13;;;;;;;;;;5035564;28;20044;-65
2022/10/01 08:03:56;;;;;;;30.52;5.78;;;;;;;;;;5032844;28;20025;-65
2022/10/01 08:06:22;;;;;;;36.25;6.00;;;;;;;;;;5036794;28;20032;-65
2022/10/01 08:08:48;;;;;;;31.42;5.55;;;;;;;;;;5040748;28;20076;-65
2022/10/01 08:11:16;;;;;;;36.65;4.95;;;;;;;;;;5034232;28;20460;-65
2022/10/01 08:13:46;;;;;;;36.03;6.20;;;;;;;;;;5034157;28;20076;-65
2022/10/01 08:16:12;;;;;;;30.73;5.53;;;;;;;;;;5032931;28;20033;-65
2022/10/01 08:18:39;;;;;;;18.75;4.47;;;;;;;;;;5032502;28;20049;-65
2022/10/01 08:21:06;;;;;;;36.05;6.10;;;;;;;;;;5036733;28;20113;-65
2022/10/01 08:23:33;;;;;;;34.38;4.97;;;;;;;;;;5032905;28;20022;-65
2022/10/01 08:26:08;;;;;;;34.00;4.35;;;;;;;;;;5035383;28;20034;-65
2022/10/01 08:28:34;;;;;;;23.35;5.38;;;;;;;;;;5032710;28;20025;-65
2022/10/01 08:31:08;;;;;;;38.42;5.90;;;;;;;;;;5037166;28;20028;-65
2022/10/01 08:33:35;;;;;;;51.00;6.45;;;;;;;;;;5035129;28;20215;-65
2022/10/01 08:36:02;;;;;;;29.60;4.97;;;;;;;;;;5041579;28;20112;-65
2022/10/01 08:38:28;;;;;;;36.63;5.43;;;;;;;;;;5032625;28;20033;-65
2022/10/01 08:40:54;;;;;;;28.33;4.63;;;;;;;;;;5035722;28;20543;-66
2022/10/01 08:43:20;;;;;;;30.83;5.90;;;;;;;;;;5031452;28;20203;-65
2022/10/01 08:45:50;;;;;;;38.60;6.80;;;;;;;;;;5032044;28;20033;-65
2022/10/01 08:48:19;;;;;;;37.67;4.97;;;;;;;;;;5025735;28;20037;-65
2022/10/01 08:50:54;;;;;;;29.55;5.18;;;;;;;;;;5026745;28;20087;-65
2022/10/01 08:53:44;;;;;;;30.38;5.22;;;;;;;;;;5034530;28;20130;-65
2022/10/01 08:56:19;;;;;;;31.42;5.18;;;;;;;;;;5030090;28;20473;-65
2022/10/01 08:58:47;;;;;;;27.25;4.60;;;;;;;;;;5032533;28;20041;-65
2022/10/01 09:01:13;;;;;;;37.35;5.97;;;;;;;;;;5034449;28;20478;-66
2022/10/01 09:03:40;;;;;;;29.83;5.55;;;;;;;;;;5031720;28;20045;-65
2022/10/01 09:06:14;;;;;;;37.72;5.25;;;;;;;;;;5026917;28;20021;-65
2022/10/01 09:08:42;;;;;;;35.67;6.10;;;;;;;;;;5027584;28;20100;-65
2022/10/01 09:11:15;;;;;;;31.05;5.25;;;;;;;;;;5031338;28;20041;-65
2022/10/01 09:13:41;;;;;;;29.50;5.45;;;;;;;;;;5032520;28;20179;-66
2022/10/01 09:16:19;;;;;;;34.58;5.30;;;;;;;;;;5025594;28;20512;-65
2022/10/01 09:19:21;;;;;;;39.22;5.68;;;;;;;;;;5030906;28;20444;-65
2022/10/01 09:21:55;;;;;;;41.47;5.30;;;;;;;;;;4951643;28;20058;-65
2022/10/01 09:24:30;;;;;;;28.73;5.82;;;;;;;;;;4954583;28;20043;-65
2022/10/01 09:26:56;;;;;;;37.78;6.15;;;;;;;;;;4951160;28;20070;-65
2022/10/01 09:29:26;;;;;;;38.50;5.60;;;;;;;;;;4948521;28;20047;-65
2022/10/01 09:31:52;;;;;;;30.30;5.13;;;;;;;;;;4951203;28;20057;-65
2022/10/01 09:34:22;;;;;;;35.58;5.50;;;;;;;;;;4969262;28;20054;-66
2022/10/01 09:37:08;;;;;;;35.53;4.75;;;;;;;;;;4970070;28;20035;-65
2022/10/01 09:39:40;;;;;;;34.97;6.00;;;;;;;;;;4965940;28;20035;-66
2022/10/01 09:42:07;;;;;;;24.90;5.40;;;;;;;;;;4972620;28;20042;-66
2022/10/01 09:44:33;;;;;;;26.90;5.68;;;;;;;;;;4973764;28;20426;-66
2022/10/01 09:46:59;;;;;;;37.20;5.72;;;;;;;;;;4975877;28;20134;-65
2022/10/01 09:49:25;;;;;;;39.97;6.38;;;;;;;;;;4970862;28;20283;-65
2022/10/01 09:51:55;;;;;;;27.35;4.53;;;;;;;;;;4965921;28;20026;-65
2022/10/01 09:54:35;;;;;;;34.83;5.97;;;;;;;;;;4969101;28;20130;-66
2022/10/01 09:57:07;;;;;;;34.55;5.20;;;;;;;;;;5028651;28;20163;-66
2022/10/01 09:59:35;;;;;;;44.97;6.32;;;;;;;;;;5020424;28;20500;-66
2022/10/01 10:02:03;;;;;;;37.70;6.55;;;;;;;;;;5026598;28;20022;-65
2022/10/01 10:04:30;;;;;;;42.35;6.25;;;;;;;;;;5023396;28;20690;-66
2022/10/01 10:07:00;;;;;;;28.10;5.70;;;;;;;;;;5024195;28;20053;-66
2022/10/01 10:09:31;;;;;;;33.08;6.00;;;;;;;;;;5020162;28;20045;-66
2022/10/01 10:11:58;;;;;;;33.72;5.10;;;;;;;;;;5025152;28;20037;-66
2022/10/01 10:14:36;;;;;;;38.38;6.40;;;;;;;;;;5026858;28;20042;-66
2022/10/01 10:17:06;;;;;;;28.77;5.97;;;;;;;;;;5023171;28;20030;-66
2022/10/01 10:19:32;;;;;;;33.60;5.40;;;;;;;;;;5025922;28;20516;-66
2022/10/01 10:22:10;;;;;;;40.80;6.07;;;;;;;;;;5023363;28;20013;-66
2022/10/01 10:24:36;;;;;;;32.25;6.43;;;;;;;;;;5025266;28;20026;-66
2022/10/01 10:27:19;;;;;;;35.60;5.07;;;;;;;;;;5020744;28;20473;-66
2022/10/01 10:29:45;;;;;;;;;;;;;;;;;;5030759;28;20048;-66
2022/10/01 10:32:17;;;;;;;18.95;4.47;;;;;;;;;;5027315;28;19924;-66
2022/10/01 10:34:47;;;;;;;28.60;5.60;;;;;;;;;;5025014;28;20030;-66
2022/10/01 10:37:18;;;;;;;27.15;4.32;;;;;;;;;;5024158;28;20029;-66
2022/10/01 10:39:50;;;;;;;28.88;5.43;;;;;;;;;;5025861;28;20022;-66
2022/10/01 10:42:17;;;;;;;36.58;5.80;;;;;;;;;;5023990;28;20034;-66
2022/10/01 10:44:45;;;;;;;25.20;4.57;;;;;;;;;;5023138;28;20421;-66
2022/10/01 10:47:13;;;;;;;29.30;5.43;;;;;;;;;;5032210;28;20033;-66
2022/10/01 10:49:44;;;;;;;33.97;5.03;;;;;;;;;;5020147;28;20486;-66
2022/10/01 10:52:29;;;;;;;23.80;4.85;;;;;;;;;;5032295;28;20037;-66
2022/10/01 10:54:56;;;;;;;22.58;4.43;;;;;;;;;;5029981;28;20453;-65
2022/10/01 10:57:27;;;;;;;27.15;4.90;;;;;;;;;;5031586;28;20026;-65
2022/10/01 10:59:54;;;;;;;31.80;4.93;;;;;;;;;;5032228;28;20051;-65
2022/10/01 11:02:22;;;;;;;26.23;4.05;;;;;;;;;;5032796;28;20029;-66
2022/10/01 11:04:49;;;;;;;32.05;5.28;;;;;;;;;;5030357;28;20047;-66
2022/10/01 11:07:19;;;;;;;30.52;4.63;;;;;;;;;;5022113;28;20030;-66
2022/10/01 11:09:45;;;;;;;23.83;4.20;;;;;;;;;;5023819;28;20045;-66
2022/10/01 11:12:17;;;;;;;39.75;5.90;;;;;;;;;;5024194;28;20037;-66
2022/10/01 11:14:50;;;;;;;27.05;4.13;;;;;;;;;;5024129;28;20026;-67
2022/10/01 11:17:19;;;;;;;23.13;4.65;;;;;;;;;;5025752;28;20017;-66
2022/10/01 11:20:03;;;;;;;21.70;3.97;;;;;;;;;;5023531;28;20670;-66
2022/10/01 11:22:36;;;;;;;26.63;4.38;;;;;;;;;;5026324;28;20084;-67
2022/10/01 11:25:16;;;;;;;23.83;4.47;;;;;;;;;;5029131;28;20059;-68
2022/10/01 11:27:44;;;;;;;25.13;4.65;;;;;;;;;;5030218;28;20079;-65
2022/10/01 11:30:22;;;;;;;24.63;4.45;;;;;;;;;;5030997;28;20025;-65
2022/10/01 11:33:02;;;;;;;27.25;4.97;;;;;;;;;;5029339;28;20021;-65
2022/10/01 11:35:28;;;;;;;18.95;4.65;;;;;;;;;;5030461;28;20072;-65
2022/10/01 11:38:05;;;;;;;16.23;3.83;;;;;;;;;;5031384;28;20021;-65
2022/10/01 11:40:35;;;;;;;22.55;4.85;;;;;;;;;;5031527;28;20465;-65
2022/10/01 11:43:05;;;;;;;21.58;3.80;;;;;;;;;;5031732;28;20032;-65
2022/10/01 11:45:38;;;;;;;28.73;5.13;;;;;;;;;;5036359;28;20514;-65
2022/10/01 11:48:04;;;;;;;;;;;;;;;;;;5030988;28;20095;-65
2022/10/01 11:50:35;;;;;;;26.00;4.30;;;;;;;;;;5033792;28;19951;-65
2022/10/01 11:53:14;;;;;;;25.63;4.40;;;;;;;;;;5031278;28;20029;-65
2022/10/01 11:58:51;;;;;;;25.40;4.68;;;;;;;;;;5035732;28;20037;-65
2022/10/01 12:01:27;;;;;;;21.88;3.60;;;;;;;;;;5034296;28;20520;-65
2022/10/01 12:03:53;;;;;;;34.28;5.07;;;;;;;;;;5033252;28;20029;-65
2022/10/01 12:06:43;;;;;;;29.30;3.97;;;;;;;;;;5032926;28;20018;-65
2022/10/01 12:09:35;;;;;;;28.40;5.50;;;;;;;;;;5031313;28;20037;-65
2022/10/01 12:12:01;;;;;;;25.80;4.60;;;;;;;;;;5031733;28;20462;-65
2022/10/01 12:14:36;;;;;;;24.83;4.22;;;;;;;;;;5034063;28;20096;-65
2022/10/01 12:17:11;;;;;;;25.05;4.75;;;;;;;;;;5030625;28;20025;-65
2022/10/01 12:19:40;;;;;;;21.60;4.45;;;;;;;;;;5032474;28;20305;-65
2022/10/01 12:22:10;;;;;;;23.13;4.38;;;;;;;;;;5032683;28;20018;-65
2022/10/01 12:24:41;;;;;;;27.40;4.63;;;;;;;;;;5032493;28;20120;-65
2022/10/01 12:27:26;;;;;;;22.67;3.85;;;;;;;;;;5028516;28;20034;-65
2022/10/01 12:29:52;;;;;;;28.98;4.13;;;;;;;;;;5030156;28;20083;-65
2022/10/01 12:32:21;;;;;;;27.88;5.15;;;;;;;;;;5032845;28;20025;-65
2022/10/01 12:34:51;;;;;;;15.35;3.65;;;;;;;;;;5032347;28;20029;-65
2022/10/01 12:37:24;;;;;;;19.58;3.67;;;;;;;;;;5031627;28;20091;-65
2022/10/01 12:40:05;;;;;;;21.63;4.07;;;;;;;;;;5032184;28;20033;-65
2022/10/01 12:42:40;;;;;;;26.38;4.05;;;;;;;;;;5032044;28;20493;-65
2022/10/01 12:45:11;;;;;;;25.80;4.45;;;;;;;;;;5031322;28;20029;-65
2022/10/01 12:47:52;;;;;;;31.25;5.43;;;;;;;;;;5032251;28;20103;-65
2022/10/01 12:50:30;;;;;;;35.33;6.18;;;;;;;;;;5032378;28;20404;-65
2022/10/01 12:53:16;;;;;;;30.58;5.50;;;;;;;;;;5031960;28;20087;-65
2022/10/01 12:55:57;;;;;;;26.17;4.43;;;;;;;;;;5026066;28;20046;-65
2022/10/01 12:58:32;;;;;;;26.02;3.63;;;;;;;;;;5031494;28;20096;-65
2022/10/01 13:01:09;;;;;;;24.55;4.20;;;;;;;;;;5032615;28;20029;-65
2022/10/01 13:03:58;;;;;;;23.35;4.40;;;;;;;;;;5029038;28;20045;-65
2022/10/01 13:06:27;;;;;;;24.67;4.13;;;;;;;;;;5032867;28;20528;-65
2022/10/01 13:08:56;;;;;;;23.08;4.68;;;;;;;;;;5035223;28;20045;-65
2022/10/01 13:11:31;;;;;;;26.88;3.88;;;;;;;;;;5031040;28;20025;-65
2022/10/01 13:13:59;;;;;;;24.75;4.07;;;;;;;;;;5036413;28;20472;-65
2022/10/01 13:16:35;;;;;;;26.23;4.28;;;;;;;;;;5031707;28;20021;-65
2022/10/01 13:19:23;;;;;;;24.15;3.75;;;;;;;;;;5031548;28;20105;-65
2022/10/01 13:21:56;;;;;;;23.25;3.70;;;;;;;;;;5029198;28;20044;-64
2022/10/01 13:24:37;;;;;;;24.60;3.95;;;;;;;;;;5036773;28;20083;-64
2022/10/01 13:27:09;;;;;;;19.73;4.07;;;;;;;;;;5036919;28;20029;-65
2022/10/01 13:29:49;;;;;;;21.07;3.47;;;;;;;;;;5032636;28;20512;-65
2022/10/01 13:32:26;;;;;;;16.83;3.53;;;;;;;;;;5032129;28;20822;-65
2022/10/01 13:34:54;;;;;;;19.27;3.17;;;;;;;;;;5036149;28;20393;-65
2022/10/01 13:37:29;;;;;;;23.88;3.88;;;;;;;;;;5041594;28;20021;-65
2022/10/01 13:39:55;;;;;;;24.17;3.38;;;;;;;;;;5037515;28;20510;-65
2022/10/01 13:42:24;;;;;;;20.50;2.83;;;;;;;;;;5036466;28;20029;-65
2022/10/01 13:45:11;;;;;;;19.80;3.33;;;;;;;;;;5039250;28;20462;-65
2022/10/01 13:47:38;;;;;;;20.73;3.58;;;;;;;;;;5035399;28;20544;-65
2022/10/01 13:50:06;;;;;;;31.40;4.75;;;;;;;;;;5032668;28;20477;-65
2022/10/01 13:52:33;;;;;;;24.02;4.35;;;;;;;;;;5035559;28;20048;-65
2022/10/01 13:55:00;;;;;;;17.08;3.17;;;;;;;;;;5033504;28;20382;-65
2022/10/01 13:57:28;;;;;;;22.70;3.55;;;;;;;;;;5030723;28;20428;-65
2022/10/01 14:00:01;;;;;;;16.27;3.92;;;;;;;;;;5044873;28;20109;-65
2022/10/01 14:02:36;;;;;;;16.77;4.95;;;;;;;;;;5038804;28;20041;-65
2022/10/01 14:05:07;;;;;;;18.77;3.85;;;;;;;;;;5036717;28;20029;-65
2022/10/01 14:07:37;;;;;;;23.75;4.50;;;;;;;;;;5030554;28;20045;-65
2022/10/01 14:10:04;;;;;;;20.08;3.83;;;;;;;;;;5046782;28;20036;-65
2022/10/01 14:18:06;;;;;;;19.27;4.00;;;;;;;;;;5032601;28;20041;-65
2022/10/01 14:20:39;;;;;;;19.75;4.70;;;;;;;;;;5037461;28;20024;-65
2022/10/01 14:23:12;;;;;;;26.30;4.80;;;;;;;;;;5033040;28;20025;-65
2022/10/01 14:25:57;;;;;;;33.85;5.32;;;;;;;;;;5030734;28;20048;-65
2022/10/01 14:28:23;;;;;;;30.88;3.88;;;;;;;;;;5039787;28;20077;-65
2022/10/01 14:31:12;;;;;;;29.45;5.80;;;;;;;;;;5030885;28;20110;-65
2022/10/01 14:33:57;;;;;;;27.45;4.57;;;;;;;;;;5023165;28;20138;-65
2022/10/01 14:36:28;;;;;;;43.70;5.50;;;;;;;;;;5027145;28;20030;-66
2022/10/01 14:39:12;;;;;;;32.22;4.65;;;;;;;;;;5031649;28;20051;-65
2022/10/01 14:41:39;;;;;;;29.63;4.65;;;;;;;;;;5031801;28;20065;-65
2022/10/01 14:44:20;;;;;;;29.30;4.97;;;;;;;;;;5031889;28;20083;-65
2022/10/01 14:46:47;;;;;;;34.35;5.00;;;;;;;;;;5025410;28;20033;-65
2022/10/01 14:49:18;;;;;;;28.45;5.25;;;;;;;;;;5044655;28;20508;-65
2022/10/01 14:51:50;;;;;;;32.00;4.88;;;;;;;;;;5031232;28;20036;-65
2022/10/01 14:54:17;;;;;;;32.97;7.75;;;;;;;;;;5031935;28;20477;-65
2022/10/01 14:56:43;;;;;;;33.60;6.10;;;;;;;;;;5031326;28;20021;-65
2022/10/01 14:59:14;;;;;;;27.60;4.78;;;;;;;;;;5032105;28;20029;-65